createdAt,value
2019-01-21T00:01:47.882Z,15.57
2019-01-21T00:04:21.674Z,15.13
2019-01-21T00:06:56.072Z,16.00
2019-01-21T00:09:32.220Z,17.00
2019-01-21T00:12:06.176Z,15.50
2019-01-21T00:14:39.841Z,16.40
2019-01-21T00:17:13.850Z,16.55
2019-01-21T00:19:49.238Z,17.53
2019-01-21T00:22:23.138Z,18.07
2019-01-21T00:24:57.846Z,18.90
2019-01-21T00:27:34.696Z,18.33
2019-01-21T00:30:11.738Z,19.48
2019-01-21T00:32:45.814Z,18.80
2019-01-21T00:35:19.670Z,20.23
2019-01-21T00:37:53.701Z,20.40
2019-01-21T00:40:31.564Z,19.53
2019-01-21T00:43:05.769Z,19.87
2019-01-21T00:45:39.560Z,18.63
2019-01-21T00:48:13.366Z,19.20
2019-01-21T00:50:47.973Z,18.70
2019-01-21T00:53:21.921Z,18.37
2019-01-21T00:55:55.748Z,17.62
2019-01-21T00:58:29.990Z,18.07
2019-01-21T01:01:05.236Z,18.27
2019-01-21T01:03:43.289Z,17.40
2019-01-21T01:06:16.992Z,17.07
2019-01-21T01:08:52.703Z,18.20
2019-01-21T01:11:27.951Z,16.63
2019-01-21T01:14:02.461Z,17.67
2019-01-21T01:16:38.547Z,17.43
2019-01-21T01:19:12.189Z,16.37
2019-01-21T01:21:48.096Z,17.82
2019-01-21T01:24:23.422Z,18.03
2019-01-21T01:26:57.535Z,20.08
2019-01-21T01:29:32.149Z,19.93
2019-01-21T01:32:06.225Z,19.50
2019-01-21T01:34:40.379Z,19.93
2019-01-21T01:37:15.481Z,19.23
2019-01-21T01:39:53.376Z,19.30
2019-01-21T01:42:28.710Z,22.30
2019-01-21T01:45:07.888Z,19.92
2019-01-21T01:47:44.911Z,19.97
2019-01-21T01:50:17.526Z,21.63
2019-01-21T01:52:52.128Z,20.80
2019-01-21T01:55:27.509Z,20.97
2019-01-21T01:58:03.312Z,20.10
2019-01-21T02:00:37.151Z,18.70
2019-01-21T02:03:10.816Z,19.80
2019-01-21T02:05:44.286Z,21.95
2019-01-21T02:08:19.357Z,22.17
2019-01-21T02:10:53.266Z,24.57
2019-01-21T02:13:30.375Z,22.67
2019-01-21T02:16:02.417Z,23.10
2019-01-21T02:18:36.858Z,22.90
2019-01-21T02:21:15.260Z,22.33
2019-01-21T02:23:51.466Z,23.95
2019-01-21T02:26:27.857Z,23.80
2019-01-21T02:29:06.885Z,23.83
2019-01-21T02:32:21.573Z,25.57
2019-01-21T02:35:10.052Z,23.52
2019-01-21T02:38:15.634Z,24.83
2019-01-21T02:40:57.929Z,24.57
2019-01-21T02:44:20.580Z,23.87
2019-01-21T02:47:18.960Z,23.37
2019-01-21T02:50:28.761Z,22.80
2019-01-21T02:53:18.843Z,23.90
2019-01-21T02:56:13.507Z,22.07
2019-01-21T02:59:04.352Z,21.45
2019-01-21T03:02:30.385Z,21.15
2019-01-21T03:05:26.889Z,18.77
2019-01-21T03:08:20.972Z,19.30
2019-01-21T03:11:24.310Z,19.47
2019-01-21T03:14:21.817Z,22.00
2019-01-21T03:17:00.790Z,19.67
2019-01-21T03:19:45.675Z,19.73
2019-01-21T03:22:51.877Z,16.23
2019-01-21T03:25:51.843Z,17.77
2019-01-21T03:28:39.299Z,19.13
2019-01-21T03:31:38.776Z,18.63
2019-01-21T03:34:19.237Z,15.33
2019-01-21T03:37:03.902Z,15.40
2019-01-21T03:40:10.131Z,15.53
2019-01-21T03:42:52.234Z,15.87
2019-01-21T03:45:43.222Z,15.67
2019-01-21T03:48:20.123Z,14.37
2019-01-21T03:51:28.821Z,13.20
2019-01-21T03:54:04.873Z,11.83
2019-01-21T03:56:42.383Z,11.70
2019-01-21T03:59:27.683Z,11.68
2019-01-21T04:02:24.898Z,10.13
2019-01-21T04:05:26.819Z,9.83
2019-01-21T04:08:03.276Z,8.70
2019-01-21T04:10:54.680Z,8.20
2019-01-21T04:13:36.900Z,7.50
2019-01-21T04:16:33.837Z,7.55
2019-01-21T04:19:28.233Z,7.20
2019-01-21T04:22:23.553Z,6.83
2019-01-21T04:25:02.689Z,6.03
2019-01-21T04:28:01.283Z,6.57
2019-01-21T04:30:52.779Z,5.70
2019-01-21T04:33:40.742Z,5.03
2019-01-21T04:36:32.136Z,5.40
2019-01-21T04:39:17.182Z,4.80
2019-01-21T04:42:23.393Z,4.30
2019-01-21T04:45:08.554Z,4.33
2019-01-21T04:48:10.376Z,4.00
2019-01-21T04:51:07.175Z,4.47
2019-01-21T04:54:13.139Z,4.13
2019-01-21T04:57:09.123Z,4.90
2019-01-21T04:59:57.337Z,4.87
2019-01-21T05:02:38.982Z,4.70
2019-01-21T05:05:28.625Z,5.03
2019-01-21T05:08:36.733Z,4.70
2019-01-21T05:11:50.406Z,4.40
2019-01-21T05:14:56.103Z,4.35
2019-01-21T05:18:17.755Z,4.17
2019-01-21T05:21:02.436Z,5.23
2019-01-21T05:26:51.248Z,4.87
2019-01-21T05:29:47.120Z,4.50
2019-01-21T05:32:50.542Z,4.40
2019-01-21T05:39:09.094Z,3.80
2019-01-21T05:42:06.804Z,4.00
2019-01-21T05:45:02.250Z,4.60
2019-01-21T05:48:14.937Z,4.30
2019-01-21T05:51:22.029Z,4.30
2019-01-21T05:54:12.864Z,4.90
2019-01-21T05:57:26.410Z,4.47
2019-01-21T06:00:14.909Z,5.03
2019-01-21T06:03:10.522Z,5.23
2019-01-21T06:06:00.614Z,5.50
2019-01-21T06:08:59.528Z,5.50
2019-01-21T06:12:02.171Z,5.33
2019-01-21T06:14:50.602Z,5.03
2019-01-21T06:17:42.030Z,5.70
2019-01-21T06:20:57.969Z,4.67
2019-01-21T06:24:14.414Z,4.73
2019-01-21T06:27:14.474Z,4.53
2019-01-21T06:30:03.393Z,4.27
2019-01-21T06:33:19.633Z,4.70
2019-01-21T06:36:16.215Z,5.23
2019-01-21T06:39:03.620Z,5.57
2019-01-21T06:41:56.380Z,5.60
2019-01-21T06:44:41.623Z,5.05
2019-01-21T06:48:04.101Z,5.13
2019-01-21T06:51:01.201Z,4.00
2019-01-21T06:53:59.345Z,3.10
2019-01-21T06:56:47.742Z,3.75
2019-01-21T06:59:50.504Z,3.58
2019-01-21T07:02:43.418Z,4.15
2019-01-21T07:05:52.763Z,3.33
2019-01-21T07:08:37.441Z,3.87
2019-01-21T07:11:49.687Z,4.13
2019-01-21T07:14:49.146Z,4.57
2019-01-21T07:17:46.731Z,4.45
2019-01-21T07:20:48.367Z,4.40
2019-01-21T07:23:48.485Z,4.93
2019-01-21T07:26:41.122Z,5.03
2019-01-21T07:29:36.989Z,4.77
2019-01-21T07:32:17.848Z,5.30
2019-01-21T07:34:57.264Z,5.80
2019-01-21T07:37:39.419Z,5.60
2019-01-21T07:40:34.468Z,5.72
2019-01-21T07:43:27.780Z,6.07
2019-01-21T07:46:23.359Z,5.53
2019-01-21T07:49:05.905Z,6.47
2019-01-21T07:52:10.423Z,6.37
2019-01-21T07:54:51.102Z,6.40
2019-01-21T07:57:57.231Z,6.43
2019-01-21T08:00:39.573Z,7.07
2019-01-21T08:03:58.937Z,8.70
2019-01-21T08:06:45.312Z,7.30
2019-01-21T08:09:38.381Z,7.37
2019-01-21T08:12:30.123Z,7.73
2019-01-21T08:15:12.603Z,8.33
2019-01-21T08:18:20.187Z,9.00
2019-01-21T08:21:28.365Z,8.30
2019-01-21T08:24:24.304Z,8.13
2019-01-21T08:27:35.020Z,6.75
2019-01-21T08:30:25.084Z,5.87
2019-01-21T08:33:06.117Z,6.60
2019-01-21T08:35:42.688Z,6.43
2019-01-21T08:38:36.351Z,6.40
2019-01-21T08:41:24.678Z,8.20
2019-01-21T08:44:17.666Z,8.50
2019-01-21T08:47:06.339Z,8.07
2019-01-21T08:49:46.588Z,8.80
2019-01-21T08:52:26.034Z,8.88
2019-01-21T08:55:29.427Z,8.90
2019-01-21T08:58:35.857Z,8.80
2019-01-21T09:01:24.168Z,9.53
2019-01-21T09:04:23.000Z,9.80
2019-01-21T09:07:00.800Z,9.50
2019-01-21T09:09:46.600Z,9.27
2019-01-21T09:12:47.395Z,9.50
2019-01-21T09:15:39.394Z,9.10
2019-01-21T09:18:21.968Z,9.60
2019-01-21T09:21:14.546Z,9.83
2019-01-21T09:24:10.407Z,9.68
2019-01-21T09:27:05.846Z,9.48
2019-01-21T09:30:08.562Z,10.50
2019-01-21T09:33:26.647Z,10.13
2019-01-21T09:36:16.780Z,10.33
2019-01-21T09:39:10.051Z,11.00
2019-01-21T09:42:14.786Z,11.80
2019-01-21T09:44:57.898Z,11.37
2019-01-21T09:47:28.787Z,10.45
2019-01-21T09:50:11.517Z,11.70
2019-01-21T09:52:51.147Z,10.25
2019-01-21T09:55:26.133Z,10.47
2019-01-21T09:58:12.125Z,10.18
2019-01-21T10:00:47.223Z,11.40
2019-01-21T10:03:29.054Z,10.10
2019-01-21T10:06:06.136Z,11.43
2019-01-21T10:08:57.155Z,11.30
2019-01-21T10:11:50.316Z,11.97
2019-01-21T10:14:43.624Z,11.87
2019-01-21T10:17:35.670Z,10.63
2019-01-21T10:20:28.482Z,12.07
2019-01-21T10:23:45.044Z,11.73
2019-01-21T10:26:38.777Z,13.83
2019-01-21T10:29:29.171Z,13.27
2019-01-21T10:32:13.599Z,13.00
2019-01-21T10:35:12.628Z,14.43
2019-01-21T10:38:25.927Z,14.37
2019-01-21T10:41:34.590Z,12.57
2019-01-21T10:44:13.928Z,13.00
2019-01-21T10:47:03.887Z,13.23
2019-01-21T10:50:02.581Z,13.97
2019-01-21T10:53:02.247Z,13.62
2019-01-21T10:55:55.829Z,13.90
2019-01-21T10:58:46.719Z,14.90
2019-01-21T11:02:00.572Z,13.93
2019-01-21T11:04:48.050Z,15.10
2019-01-21T11:07:45.378Z,15.37
2019-01-21T11:10:25.603Z,15.25
2019-01-21T11:13:13.789Z,15.67
2019-01-21T11:16:03.212Z,16.12
2019-01-21T11:19:09.110Z,15.53
2019-01-21T11:21:52.524Z,16.17
2019-01-21T11:24:55.330Z,16.67
2019-01-21T11:27:35.894Z,16.40
2019-01-21T11:30:35.388Z,17.98
2019-01-21T11:33:52.149Z,17.03
2019-01-21T11:36:52.437Z,17.30
2019-01-21T11:39:47.705Z,16.97
2019-01-21T11:42:27.785Z,16.13
2019-01-21T11:45:37.855Z,16.90
2019-01-21T11:48:26.605Z,15.88
2019-01-21T11:51:41.021Z,16.70
2019-01-21T11:54:30.223Z,17.23
2019-01-21T11:57:25.074Z,16.60
2019-01-21T12:00:22.364Z,15.80
2019-01-21T12:03:23.623Z,17.00
2019-01-21T12:06:02.188Z,16.10
2019-01-21T12:09:10.263Z,16.60
2019-01-21T12:12:08.933Z,15.55
2019-01-21T12:15:27.967Z,16.53
2019-01-21T12:18:31.935Z,15.90
2019-01-21T12:21:20.830Z,15.43
2019-01-21T12:24:04.569Z,16.35
2019-01-21T12:26:52.196Z,16.20
2019-01-21T12:29:48.699Z,15.93
2019-01-21T12:32:44.564Z,15.77
2019-01-21T12:35:38.865Z,16.97
2019-01-21T12:38:51.374Z,18.50
2019-01-21T12:42:03.089Z,18.35
2019-01-21T12:45:05.587Z,18.52
2019-01-21T12:48:09.861Z,20.20
2019-01-21T12:51:33.687Z,21.55
2019-01-21T12:54:38.506Z,21.02
2019-01-21T12:57:45.825Z,21.77
2019-01-21T13:00:31.903Z,22.53
2019-01-21T13:03:28.964Z,23.37
2019-01-21T13:06:22.357Z,23.77
2019-01-21T13:09:18.465Z,24.27
2019-01-21T13:12:26.396Z,23.67
2019-01-21T13:15:27.063Z,25.48
2019-01-21T13:18:42.131Z,24.87
2019-01-21T13:21:38.503Z,26.43
2019-01-21T13:24:44.320Z,26.90
2019-01-21T13:27:24.418Z,27.20
2019-01-21T13:30:02.453Z,27.17
2019-01-21T13:33:13.051Z,29.52
2019-01-21T13:35:55.671Z,28.73
2019-01-21T13:38:55.187Z,29.10
2019-01-21T13:41:41.027Z,29.43
2019-01-21T13:44:51.216Z,32.50
2019-01-21T13:47:55.127Z,31.93
2019-01-21T13:50:42.710Z,33.80
2019-01-21T13:53:55.836Z,34.48
2019-01-21T13:56:45.777Z,33.33
2019-01-21T14:00:12.228Z,32.80
2019-01-21T14:02:56.949Z,35.07
2019-01-21T14:05:58.706Z,32.70
2019-01-21T14:09:01.323Z,36.23
2019-01-21T14:11:57.326Z,35.70
2019-01-21T14:14:43.236Z,34.60
2019-01-21T14:17:40.449Z,34.37
2019-01-21T14:20:20.266Z,34.53
2019-01-21T14:23:25.467Z,35.10
2019-01-21T14:26:17.620Z,35.03
2019-01-21T14:29:09.513Z,36.90
2019-01-21T14:32:04.792Z,36.58
2019-01-21T14:34:46.950Z,36.23
2019-01-21T14:37:40.329Z,35.65
2019-01-21T14:40:25.399Z,36.90
2019-01-21T14:43:43.824Z,34.87
2019-01-21T14:46:30.611Z,36.07
2019-01-21T14:49:13.927Z,33.90
2019-01-21T14:51:56.978Z,35.47
2019-01-21T14:54:38.752Z,35.07
2019-01-21T14:57:29.884Z,36.50
2019-01-21T15:00:25.031Z,36.17
2019-01-21T15:03:32.604Z,36.90
2019-01-21T15:06:17.622Z,34.93
2019-01-21T15:09:08.874Z,36.17
2019-01-21T15:12:30.185Z,37.17
2019-01-21T15:15:28.850Z,35.43
2019-01-21T15:18:14.161Z,37.27
2019-01-21T15:21:20.367Z,37.33
2019-01-21T15:24:21.569Z,37.03
2019-01-21T15:27:19.312Z,38.23
2019-01-21T15:30:09.418Z,39.15
2019-01-21T15:33:18.529Z,36.30
2019-01-21T15:35:57.422Z,38.47
2019-01-21T15:38:36.628Z,35.00
2019-01-21T15:41:54.711Z,36.57
2019-01-21T15:44:47.370Z,36.23
2019-01-21T15:47:26.722Z,37.63
2019-01-21T15:50:09.104Z,36.10
2019-01-21T15:53:11.359Z,35.40
2019-01-21T15:55:59.632Z,36.87
2019-01-21T15:58:47.671Z,36.50
2019-01-21T16:01:50.392Z,37.10
2019-01-21T16:04:32.820Z,37.80
2019-01-21T16:07:11.448Z,37.03
2019-01-21T16:10:00.253Z,39.87
2019-01-21T16:13:02.968Z,36.17
2019-01-21T16:15:53.632Z,36.70
2019-01-21T16:18:54.164Z,37.97
2019-01-21T16:21:55.010Z,37.98
2019-01-21T16:24:48.980Z,36.43
2019-01-21T16:27:37.256Z,34.57
2019-01-21T16:30:32.664Z,36.87
2019-01-21T16:33:45.565Z,36.30
2019-01-21T16:36:41.379Z,35.83
2019-01-21T16:39:23.413Z,37.13
2019-01-21T16:42:15.726Z,36.47
2019-01-21T16:44:54.547Z,37.00
2019-01-21T16:47:31.877Z,35.77
2019-01-21T16:50:06.122Z,37.10
2019-01-21T16:52:40.955Z,39.80
2019-01-21T16:55:14.907Z,38.73
2019-01-21T16:57:48.793Z,38.87
2019-01-21T17:00:23.536Z,37.30
2019-01-21T17:02:58.090Z,36.93
2019-01-21T17:05:31.887Z,37.40
2019-01-21T17:08:05.707Z,36.53
2019-01-21T17:10:40.200Z,38.13
2019-01-21T17:13:14.125Z,37.00
2019-01-21T17:15:47.953Z,37.90
2019-01-21T17:18:21.682Z,38.03
2019-01-21T17:20:56.343Z,37.83
2019-01-21T17:23:30.334Z,38.17
2019-01-21T17:26:07.528Z,39.90
2019-01-21T17:28:41.525Z,38.47
2019-01-21T17:31:17.169Z,36.30
2019-01-21T17:33:51.109Z,36.97
2019-01-21T17:36:28.078Z,38.63
2019-01-21T17:39:02.457Z,40.10
2019-01-21T17:41:36.206Z,37.97
2019-01-21T17:44:13.012Z,40.43
2019-01-21T17:46:47.016Z,37.87
2019-01-21T17:49:21.841Z,39.47
2019-01-21T17:51:59.254Z,39.07
2019-01-21T17:54:35.280Z,39.00
2019-01-21T17:57:10.244Z,39.25
2019-01-21T17:59:44.879Z,37.50
2019-01-21T18:02:19.068Z,41.30
2019-01-21T18:04:54.748Z,41.60
2019-01-21T18:07:28.655Z,41.02
2019-01-21T18:10:02.949Z,41.93
2019-01-21T18:12:36.910Z,42.47
2019-01-21T18:15:12.914Z,42.10
2019-01-21T18:17:46.743Z,43.43
2019-01-21T18:20:22.574Z,41.90
2019-01-21T18:22:57.261Z,44.42
2019-01-21T18:25:31.026Z,46.20
2019-01-21T18:28:05.030Z,46.17
2019-01-21T18:30:39.575Z,47.30
2019-01-21T18:33:20.932Z,49.77
2019-01-21T18:36:13.834Z,50.77
2019-01-21T18:38:48.770Z,50.33
2019-01-21T18:41:22.603Z,51.37
2019-01-21T18:43:56.321Z,53.27
2019-01-21T18:46:33.003Z,51.10
2019-01-21T18:49:08.165Z,53.10
2019-01-21T18:51:46.611Z,52.13
2019-01-21T18:54:17.941Z,53.70
2019-01-21T18:56:51.838Z,53.75
2019-01-21T18:59:25.887Z,54.43
2019-01-21T19:02:00.347Z,55.23
2019-01-21T19:04:34.283Z,54.23
2019-01-21T19:07:08.373Z,51.90
2019-01-21T19:09:42.319Z,55.83
2019-01-21T19:12:16.268Z,55.23
2019-01-21T19:14:50.151Z,55.30
2019-01-21T19:17:27.651Z,55.27
2019-01-21T19:20:01.572Z,53.83
2019-01-21T19:22:36.651Z,51.37
2019-01-21T19:25:12.056Z,55.53
2019-01-21T19:27:46.243Z,54.93
2019-01-21T19:30:24.601Z,55.20
2019-01-21T19:32:58.445Z,54.75
2019-01-21T19:35:42.185Z,51.93
2019-01-21T19:38:16.472Z,53.97
2019-01-21T19:40:53.449Z,55.97
2019-01-21T19:43:28.065Z,52.43
2019-01-21T19:46:08.260Z,54.37
2019-01-21T19:48:42.799Z,53.87
2019-01-21T19:51:26.326Z,54.27
2019-01-21T19:54:07.833Z,52.70
2019-01-21T19:56:41.588Z,54.10
2019-01-21T19:59:18.080Z,53.83
2019-01-21T20:01:52.005Z,54.35
2019-01-21T20:04:29.969Z,53.95
2019-01-21T20:07:05.282Z,53.23
2019-01-21T20:09:40.069Z,54.40
2019-01-21T20:15:03.721Z,54.17
2019-01-21T20:17:38.974Z,53.60
2019-01-21T20:20:23.782Z,52.93
2019-01-21T20:22:58.264Z,54.03
2019-01-21T20:25:36.303Z,54.63
2019-01-21T20:28:11.183Z,52.67
2019-01-21T20:30:45.844Z,52.38
2019-01-21T20:33:19.649Z,51.08
2019-01-21T20:35:53.354Z,48.77
2019-01-21T20:38:27.967Z,48.67
2019-01-21T20:41:02.089Z,48.20
2019-01-21T20:43:36.815Z,45.40
2019-01-21T20:46:13.934Z,48.07
2019-01-21T20:48:48.310Z,46.97
2019-01-21T20:51:22.215Z,47.00
2019-01-21T20:53:56.543Z,44.80
2019-01-21T20:56:37.719Z,44.23
2019-01-21T20:59:11.443Z,44.27
2019-01-21T21:01:46.157Z,43.38
2019-01-21T21:04:18.666Z,42.17
2019-01-21T21:06:51.483Z,41.37
2019-01-21T21:09:24.056Z,42.43
2019-01-21T21:11:57.052Z,41.25
2019-01-21T21:14:30.034Z,43.47
2019-01-21T21:17:02.996Z,42.17
2019-01-21T21:19:35.690Z,41.30
2019-01-21T21:22:08.301Z,42.80
2019-01-21T21:24:40.854Z,42.57
2019-01-21T21:27:14.455Z,43.63
2019-01-21T21:29:47.341Z,43.63
2019-01-21T21:32:20.265Z,43.13
2019-01-21T21:34:54.068Z,43.17
2019-01-21T21:37:26.845Z,42.90
2019-01-21T21:40:00.005Z,42.80
2019-01-21T21:42:33.885Z,43.47
2019-01-21T21:45:10.215Z,43.93
2019-01-21T21:47:42.888Z,44.80
2019-01-21T21:50:22.377Z,42.77
2019-01-21T21:52:55.845Z,44.83
2019-01-21T21:55:29.668Z,43.93
2019-01-21T21:58:03.758Z,44.98
2019-01-21T22:00:36.334Z,43.52
2019-01-21T22:03:09.114Z,43.83
2019-01-21T22:05:43.023Z,42.77
2019-01-21T22:08:15.901Z,38.13
2019-01-21T22:10:48.499Z,37.23
2019-01-21T22:13:21.499Z,40.57
2019-01-21T22:15:57.035Z,39.60
2019-01-21T22:18:29.127Z,35.63
2019-01-21T22:21:02.617Z,38.27
2019-01-21T22:23:38.171Z,34.00
2019-01-21T22:26:15.405Z,31.93
2019-01-21T22:28:49.894Z,29.50
2019-01-21T22:31:23.803Z,22.40
2019-01-21T22:36:37.263Z,20.63
2019-01-21T22:39:11.340Z,18.53
2019-01-21T22:41:46.368Z,20.80
2019-01-21T22:44:20.391Z,21.07
2019-01-21T22:46:54.830Z,21.23
2019-01-21T22:49:30.356Z,22.50
2019-01-21T22:52:04.994Z,22.10
2019-01-21T22:54:39.793Z,22.33
2019-01-21T22:57:13.835Z,23.67
2019-01-21T22:59:48.011Z,25.00
2019-01-21T23:02:22.902Z,24.53
2019-01-21T23:04:56.726Z,24.80
2019-01-21T23:07:30.728Z,25.17
2019-01-21T23:10:05.654Z,27.10
2019-01-21T23:12:39.781Z,26.07
2019-01-21T23:15:14.054Z,26.53
2019-01-21T23:17:49.073Z,26.77
2019-01-21T23:20:24.159Z,28.80
2019-01-21T23:22:59.626Z,27.85
2019-01-21T23:25:33.291Z,29.16
2019-01-21T23:28:07.776Z,28.77
2019-01-21T23:30:43.136Z,29.53
2019-01-21T23:33:17.282Z,29.57
2019-01-21T23:35:52.446Z,30.47
2019-01-21T23:38:26.355Z,31.60
2019-01-21T23:41:01.101Z,31.50
2019-01-21T23:43:36.184Z,32.05
2019-01-21T23:46:10.362Z,33.00
2019-01-21T23:48:44.153Z,32.80
2019-01-21T23:51:21.623Z,32.13
2019-01-21T23:53:55.828Z,33.27
2019-01-21T23:56:34.501Z,30.23
2019-01-21T23:59:09.432Z,30.47
